サンフランシスコ の空港の天気 - METARとTAF

サンフランシスコ国際空港 ( KSFO / SFO ) - アメリカ合衆国 カリフォルニア州サンマテオ郡
飛行場実況気象(Metar)
観測時間06/22 17:56 PDT (06/23 00:56 UTC)
風向・風速西北西 7m/s
視程10km以上
天気現象
少しの雲 雲底高度 120m
気温22.2℃
湿度53%
気圧1006.8hPa
METARKSFO 230056Z 30014KT 10SM FEW004 22/12 A2973 RMK AO2 SLP068 T02220122
過去の天気等 Google飛行場航空写真 Wunderground天気予報

過去48時間のMETAR

飛行場予報(TAF)
発表時間: 6/22 16:32 PDT (6/22 23:32 UTC)
予報対象時間: 22日17時 PDT ~ 23日23時 PDT
風向・風速西北西 9m/s
視程10km以上
少しの雲 雲底高度 150m
22日22時 PDT から
風向・風速西 5m/s
視程10km以上
少しの雲 雲底高度 210m
23日4時 PDT から
風向・風速西 3m/s
視程8,050m
天気現象煙霧
少しの雲 雲底高度 300m
23日9時 PDT から
風向・風速北 4m/s
視程10km以上
なし
23日13時 PDT から
風向・風速西北西 7m/s
視程10km以上
なし
23日16時 PDT から
風向・風速西北西 9m/s
視程10km以上
少しの雲 雲底高度 270m
23日21時 PDT から
風向・風速西北西 5m/s
視程10km以上
少しの雲 雲底高度 270m
KSFO 222332Z 2300/2406 29017KT P6SM FEW005
FM230500 28009KT P6SM FEW007
FM231100 26006KT 5SM HZ FEW010
FM231600 01007KT P6SM SKC
FM232000 30013KT P6SM SKC
FM232300 29017KT P6SM FEW009
FM240400 29010KT P6SM FEW009